SMA weather

Santa Maria Airport
Vila do Porto, Autonomous Region of Azores, Portugal

Public forecast

Using degrees Celsius for public forecast. Weather courtesy of forecast.io.

Current aviation weather report (METAR) for Santa Maria Airport

Retrieved 2019/12/14 04:30 UTC (8 minutes ago):

LPAZ 140430Z 23013KT 9999 FEW017 BKN040 17/14 Q1024

Aviation forecast (TAF) for Santa Maria Airport

Retrieved 2019-12-14 00:18 UTC (4 hours ago):

TAF LPAZ 132300Z 1400/1506 23015KT 9999 BKN035 BECMG 1409/1411 6000 -RA SCT012 BKN020 PROB40 TEMPO 1411/1415 3000 RADZ BR SCT008 BKN015 BECMG 1415/1417 34015KT 9999 NSW SCT025 PROB30 TEMPO 1417/1506 34018G28KT 8000 SHRA BKN020 FEW030TCU